sensor_id;sensor_type;location;lat;lon;timestamp;temperature;humidity
40636;DHT22;26642;55.766;37.828;2023-06-22T00:02:00;16.50;68.70
40636;DHT22;26642;55.766;37.828;2023-06-22T00:04:27;16.40;70.40
40636;DHT22;26642;55.766;37.828;2023-06-22T00:06:53;16.30;71.40
40636;DHT22;26642;55.766;37.828;2023-06-22T00:09:19;16.30;71.70
40636;DHT22;26642;55.766;37.828;2023-06-22T00:11:45;16.30;70.80
40636;DHT22;26642;55.766;37.828;2023-06-22T00:14:11;16.40;68.70
40636;DHT22;26642;55.766;37.828;2023-06-22T00:16:37;16.40;69.10
40636;DHT22;26642;55.766;37.828;2023-06-22T00:19:03;16.50;68.00
40636;DHT22;26642;55.766;37.828;2023-06-22T00:21:29;16.60;66.00
40636;DHT22;26642;55.766;37.828;2023-06-22T00:23:55;16.60;67.50
40636;DHT22;26642;55.766;37.828;2023-06-22T00:26:23;16.40;69.00
40636;DHT22;26642;55.766;37.828;2023-06-22T00:28:49;16.30;71.10
40636;DHT22;26642;55.766;37.828;2023-06-22T00:31:15;16.20;72.20
40636;DHT22;26642;55.766;37.828;2023-06-22T00:33:41;16.10;72.00
40636;DHT22;26642;55.766;37.828;2023-06-22T00:36:07;16.20;71.60
40636;DHT22;26642;55.766;37.828;2023-06-22T00:38:34;16.20;70.80
40636;DHT22;26642;55.766;37.828;2023-06-22T00:41:01;16.30;68.60
40636;DHT22;26642;55.766;37.828;2023-06-22T00:43:27;16.10;69.90
40636;DHT22;26642;55.766;37.828;2023-06-22T00:45:55;16.10;71.90
40636;DHT22;26642;55.766;37.828;2023-06-22T00:48:22;16.00;72.60
40636;DHT22;26642;55.766;37.828;2023-06-22T00:50:48;16.00;73.30
40636;DHT22;26642;55.766;37.828;2023-06-22T00:53:16;15.90;73.50
40636;DHT22;26642;55.766;37.828;2023-06-22T00:55:44;15.90;74.00
40636;DHT22;26642;55.766;37.828;2023-06-22T00:58:11;15.90;73.40
40636;DHT22;26642;55.766;37.828;2023-06-22T01:00:38;16.00;73.50
40636;DHT22;26642;55.766;37.828;2023-06-22T01:03:04;15.90;73.70
40636;DHT22;26642;55.766;37.828;2023-06-22T01:05:35;15.80;73.90
40636;DHT22;26642;55.766;37.828;2023-06-22T01:18:36;15.90;73.90
40636;DHT22;26642;55.766;37.828;2023-06-22T01:21:04;15.90;74.10
40636;DHT22;26642;55.766;37.828;2023-06-22T01:29:11;15.90;73.30
40636;DHT22;26642;55.766;37.828;2023-06-22T01:31:40;16.00;73.30
40636;DHT22;26642;55.766;37.828;2023-06-22T01:34:08;16.10;70.60
40636;DHT22;26642;55.766;37.828;2023-06-22T01:36:35;16.20;72.20
40636;DHT22;26642;55.766;37.828;2023-06-22T01:39:03;16.30;71.70
40636;DHT22;26642;55.766;37.828;2023-06-22T01:41:34;16.40;72.20
40636;DHT22;26642;55.766;37.828;2023-06-22T01:44:01;16.40;72.40
40636;DHT22;26642;55.766;37.828;2023-06-22T01:46:28;16.30;71.20
40636;DHT22;26642;55.766;37.828;2023-06-22T01:48:55;16.30;70.70
40636;DHT22;26642;55.766;37.828;2023-06-22T01:51:22;16.20;71.30
40636;DHT22;26642;55.766;37.828;2023-06-22T01:53:48;16.20;72.30
40636;DHT22;26642;55.766;37.828;2023-06-22T01:56:17;16.10;73.50
40636;DHT22;26642;55.766;37.828;2023-06-22T01:58:50;16.10;73.90
40636;DHT22;26642;55.766;37.828;2023-06-22T02:01:20;16.10;74.10
40636;DHT22;26642;55.766;37.828;2023-06-22T02:04:01;16.00;74.00
40636;DHT22;26642;55.766;37.828;2023-06-22T02:06:33;15.90;74.60
40636;DHT22;26642;55.766;37.828;2023-06-22T02:09:06;16.00;74.20
40636;DHT22;26642;55.766;37.828;2023-06-22T02:11:33;16.00;73.80
40636;DHT22;26642;55.766;37.828;2023-06-22T02:14:00;16.10;73.40
40636;DHT22;26642;55.766;37.828;2023-06-22T02:16:28;16.20;72.00
40636;DHT22;26642;55.766;37.828;2023-06-22T02:18:57;16.40;71.30
40636;DHT22;26642;55.766;37.828;2023-06-22T02:21:29;16.60;71.90
40636;DHT22;26642;55.766;37.828;2023-06-22T02:23:56;16.90;68.20
40636;DHT22;26642;55.766;37.828;2023-06-22T02:26:24;17.10;66.80
40636;DHT22;26642;55.766;37.828;2023-06-22T02:28:51;17.20;65.80
40636;DHT22;26642;55.766;37.828;2023-06-22T02:31:17;17.40;64.50
40636;DHT22;26642;55.766;37.828;2023-06-22T02:33:43;17.60;63.50
40636;DHT22;26642;55.766;37.828;2023-06-22T02:36:09;17.80;64.50
40636;DHT22;26642;55.766;37.828;2023-06-22T02:38:42;17.90;62.90
40636;DHT22;26642;55.766;37.828;2023-06-22T02:41:14;18.00;62.50
40636;DHT22;26642;55.766;37.828;2023-06-22T02:43:45;18.00;62.40
40636;DHT22;26642;55.766;37.828;2023-06-22T02:46:11;18.10;62.50
40636;DHT22;26642;55.766;37.828;2023-06-22T02:48:40;18.10;61.50
40636;DHT22;26642;55.766;37.828;2023-06-22T02:51:06;18.20;61.30
40636;DHT22;26642;55.766;37.828;2023-06-22T02:53:34;18.30;61.30
40636;DHT22;26642;55.766;37.828;2023-06-22T02:56:02;18.30;60.70
40636;DHT22;26642;55.766;37.828;2023-06-22T02:58:32;18.40;60.30
40636;DHT22;26642;55.766;37.828;2023-06-22T03:01:05;18.40;59.40
40636;DHT22;26642;55.766;37.828;2023-06-22T03:03:33;18.40;59.50
40636;DHT22;26642;55.766;37.828;2023-06-22T03:05:59;18.50;58.90
40636;DHT22;26642;55.766;37.828;2023-06-22T03:08:27;18.40;58.80
40636;DHT22;26642;55.766;37.828;2023-06-22T03:10:53;18.40;58.80
40636;DHT22;26642;55.766;37.828;2023-06-22T03:13:19;18.40;59.20
40636;DHT22;26642;55.766;37.828;2023-06-22T03:15:45;18.40;59.40
40636;DHT22;26642;55.766;37.828;2023-06-22T03:18:11;18.40;59.70
40636;DHT22;26642;55.766;37.828;2023-06-22T03:20:37;18.40;59.10
40636;DHT22;26642;55.766;37.828;2023-06-22T03:23:03;18.50;59.10
40636;DHT22;26642;55.766;37.828;2023-06-22T03:25:31;18.70;58.40
40636;DHT22;26642;55.766;37.828;2023-06-22T03:28:00;18.90;57.80
40636;DHT22;26642;55.766;37.828;2023-06-22T03:30:26;19.00;57.60
40636;DHT22;26642;55.766;37.828;2023-06-22T03:32:52;19.20;57.60
40636;DHT22;26642;55.766;37.828;2023-06-22T03:35:18;19.30;57.40
40636;DHT22;26642;55.766;37.828;2023-06-22T03:37:46;19.40;57.10
40636;DHT22;26642;55.766;37.828;2023-06-22T03:40:12;19.50;56.50
40636;DHT22;26642;55.766;37.828;2023-06-22T03:42:39;19.60;56.70
40636;DHT22;26642;55.766;37.828;2023-06-22T03:45:05;19.80;56.00
40636;DHT22;26642;55.766;37.828;2023-06-22T03:47:32;19.90;55.40
40636;DHT22;26642;55.766;37.828;2023-06-22T03:49:59;20.10;55.10
40636;DHT22;26642;55.766;37.828;2023-06-22T03:52:25;20.20;54.70
40636;DHT22;26642;55.766;37.828;2023-06-22T03:54:51;20.20;54.40
40636;DHT22;26642;55.766;37.828;2023-06-22T03:57:17;20.40;54.20
40636;DHT22;26642;55.766;37.828;2023-06-22T03:59:42;20.60;54.20
40636;DHT22;26642;55.766;37.828;2023-06-22T04:02:08;20.70;53.80
40636;DHT22;26642;55.766;37.828;2023-06-22T04:04:35;20.90;55.10
40636;DHT22;26642;55.766;37.828;2023-06-22T04:07:01;21.00;53.10
40636;DHT22;26642;55.766;37.828;2023-06-22T04:09:27;21.20;52.90
40636;DHT22;26642;55.766;37.828;2023-06-22T04:11:52;21.30;53.30
40636;DHT22;26642;55.766;37.828;2023-06-22T04:14:18;21.40;52.40
40636;DHT22;26642;55.766;37.828;2023-06-22T04:16:44;21.50;52.90
40636;DHT22;26642;55.766;37.828;2023-06-22T04:19:10;21.60;51.80
40636;DHT22;26642;55.766;37.828;2023-06-22T04:21:44;21.70;52.40
40636;DHT22;26642;55.766;37.828;2023-06-22T04:24:11;21.70;52.10
40636;DHT22;26642;55.766;37.828;2023-06-22T04:26:37;21.70;51.80
40636;DHT22;26642;55.766;37.828;2023-06-22T04:29:04;21.80;51.40
40636;DHT22;26642;55.766;37.828;2023-06-22T04:31:34;22.00;51.40
40636;DHT22;26642;55.766;37.828;2023-06-22T04:34:05;22.30;51.70
40636;DHT22;26642;55.766;37.828;2023-06-22T04:36:41;22.60;50.20
40636;DHT22;26642;55.766;37.828;2023-06-22T04:39:10;22.80;50.90
40636;DHT22;26642;55.766;37.828;2023-06-22T04:41:37;22.90;51.40
40636;DHT22;26642;55.766;37.828;2023-06-22T04:44:14;23.10;51.10
40636;DHT22;26642;55.766;37.828;2023-06-22T04:46:56;23.30;51.20
40636;DHT22;26642;55.766;37.828;2023-06-22T04:49:26;23.40;50.60
40636;DHT22;26642;55.766;37.828;2023-06-22T04:51:59;23.50;49.80
40636;DHT22;26642;55.766;37.828;2023-06-22T04:54:25;23.70;50.40
40636;DHT22;26642;55.766;37.828;2023-06-22T04:57:02;23.70;49.00
40636;DHT22;26642;55.766;37.828;2023-06-22T04:59:29;23.80;50.60
40636;DHT22;26642;55.766;37.828;2023-06-22T05:02:01;23.90;49.70
40636;DHT22;26642;55.766;37.828;2023-06-22T05:04:29;23.90;47.80
40636;DHT22;26642;55.766;37.828;2023-06-22T05:06:59;23.80;47.10
40636;DHT22;26642;55.766;37.828;2023-06-22T05:09:29;23.90;47.00
40636;DHT22;26642;55.766;37.828;2023-06-22T05:11:55;24.00;49.00
40636;DHT22;26642;55.766;37.828;2023-06-22T05:14:22;24.00;49.10
40636;DHT22;26642;55.766;37.828;2023-06-22T05:16:49;24.20;48.90
40636;DHT22;26642;55.766;37.828;2023-06-22T05:19:15;24.20;49.20
40636;DHT22;26642;55.766;37.828;2023-06-22T05:21:41;24.40;49.00
40636;DHT22;26642;55.766;37.828;2023-06-22T05:24:07;24.60;48.70
40636;DHT22;26642;55.766;37.828;2023-06-22T05:26:34;24.70;47.60
40636;DHT22;26642;55.766;37.828;2023-06-22T05:29:02;25.00;47.60
40636;DHT22;26642;55.766;37.828;2023-06-22T05:31:29;25.00;47.20
40636;DHT22;26642;55.766;37.828;2023-06-22T05:33:55;25.10;46.60
40636;DHT22;26642;55.766;37.828;2023-06-22T05:36:21;25.20;46.00
40636;DHT22;26642;55.766;37.828;2023-06-22T05:38:51;25.40;46.80
40636;DHT22;26642;55.766;37.828;2023-06-22T05:41:17;25.50;46.90
40636;DHT22;26642;55.766;37.828;2023-06-22T05:43:43;25.70;46.90
40636;DHT22;26642;55.766;37.828;2023-06-22T05:46:09;25.90;46.40
40636;DHT22;26642;55.766;37.828;2023-06-22T05:48:35;26.10;45.50
40636;DHT22;26642;55.766;37.828;2023-06-22T05:51:02;26.30;43.90
40636;DHT22;26642;55.766;37.828;2023-06-22T05:53:28;26.40;44.60
40636;DHT22;26642;55.766;37.828;2023-06-22T05:55:54;26.60;45.40
40636;DHT22;26642;55.766;37.828;2023-06-22T05:58:20;26.80;44.20
40636;DHT22;26642;55.766;37.828;2023-06-22T06:00:46;26.90;43.80
40636;DHT22;26642;55.766;37.828;2023-06-22T06:03:12;27.00;43.30
40636;DHT22;26642;55.766;37.828;2023-06-22T06:05:43;27.20;43.60
40636;DHT22;26642;55.766;37.828;2023-06-22T06:08:09;27.40;44.20
40636;DHT22;26642;55.766;37.828;2023-06-22T06:10:36;27.50;44.10
40636;DHT22;26642;55.766;37.828;2023-06-22T06:13:03;27.60;43.10
40636;DHT22;26642;55.766;37.828;2023-06-22T06:15:31;27.60;42.40
40636;DHT22;26642;55.766;37.828;2023-06-22T06:17:57;27.70;43.50
40636;DHT22;26642;55.766;37.828;2023-06-22T06:20:26;27.80;44.00
40636;DHT22;26642;55.766;37.828;2023-06-22T06:22:53;28.00;43.80
40636;DHT22;26642;55.766;37.828;2023-06-22T06:25:19;28.10;42.70
40636;DHT22;26642;55.766;37.828;2023-06-22T06:27:48;28.20;41.20
40636;DHT22;26642;55.766;37.828;2023-06-22T06:30:16;28.20;41.00
40636;DHT22;26642;55.766;37.828;2023-06-22T06:32:43;28.30;41.60
40636;DHT22;26642;55.766;37.828;2023-06-22T06:35:11;28.40;41.40
40636;DHT22;26642;55.766;37.828;2023-06-22T06:37:42;28.40;40.00
40636;DHT22;26642;55.766;37.828;2023-06-22T06:40:10;28.40;39.60
40636;DHT22;26642;55.766;37.828;2023-06-22T06:42:38;28.40;40.90
40636;DHT22;26642;55.766;37.828;2023-06-22T06:45:07;28.50;40.40
40636;DHT22;26642;55.766;37.828;2023-06-22T06:47:33;28.60;40.30
40636;DHT22;26642;55.766;37.828;2023-06-22T06:49:59;28.50;39.90
40636;DHT22;26642;55.766;37.828;2023-06-22T06:52:25;28.70;41.00
40636;DHT22;26642;55.766;37.828;2023-06-22T06:54:52;28.70;40.00
40636;DHT22;26642;55.766;37.828;2023-06-22T06:57:18;28.80;39.80
40636;DHT22;26642;55.766;37.828;2023-06-22T06:59:46;28.80;40.40
40636;DHT22;26642;55.766;37.828;2023-06-22T07:02:12;28.70;40.10
40636;DHT22;26642;55.766;37.828;2023-06-22T07:04:38;28.70;41.50
40636;DHT22;26642;55.766;37.828;2023-06-22T07:07:04;28.60;39.60
40636;DHT22;26642;55.766;37.828;2023-06-22T07:09:30;28.60;40.80
40636;DHT22;26642;55.766;37.828;2023-06-22T07:11:56;28.70;40.20
40636;DHT22;26642;55.766;37.828;2023-06-22T07:14:21;28.80;40.40
40636;DHT22;26642;55.766;37.828;2023-06-22T07:16:47;28.80;40.80
40636;DHT22;26642;55.766;37.828;2023-06-22T07:19:13;28.80;40.00
40636;DHT22;26642;55.766;37.828;2023-06-22T07:21:39;28.70;40.80
40636;DHT22;26642;55.766;37.828;2023-06-22T07:24:06;28.60;40.30
40636;DHT22;26642;55.766;37.828;2023-06-22T07:26:33;28.60;39.90
40636;DHT22;26642;55.766;37.828;2023-06-22T07:28:59;28.50;38.90
40636;DHT22;26642;55.766;37.828;2023-06-22T07:31:26;28.30;40.10
40636;DHT22;26642;55.766;37.828;2023-06-22T07:33:52;28.20;40.20
40636;DHT22;26642;55.766;37.828;2023-06-22T07:36:18;28.10;40.10
40636;DHT22;26642;55.766;37.828;2023-06-22T07:38:44;28.00;41.20
40636;DHT22;26642;55.766;37.828;2023-06-22T07:41:10;28.00;41.00
40636;DHT22;26642;55.766;37.828;2023-06-22T07:43:36;28.00;40.80
40636;DHT22;26642;55.766;37.828;2023-06-22T07:46:03;27.90;40.50
40636;DHT22;26642;55.766;37.828;2023-06-22T07:48:29;27.90;39.40
40636;DHT22;26642;55.766;37.828;2023-06-22T07:50:55;27.90;39.80
40636;DHT22;26642;55.766;37.828;2023-06-22T07:53:22;27.80;40.90
40636;DHT22;26642;55.766;37.828;2023-06-22T07:55:49;27.90;41.40
40636;DHT22;26642;55.766;37.828;2023-06-22T07:58:15;27.90;41.90
40636;DHT22;26642;55.766;37.828;2023-06-22T08:00:41;27.90;41.00
40636;DHT22;26642;55.766;37.828;2023-06-22T08:03:07;27.90;40.70
40636;DHT22;26642;55.766;37.828;2023-06-22T08:05:33;27.90;40.70
40636;DHT22;26642;55.766;37.828;2023-06-22T08:07:59;27.80;41.10
40636;DHT22;26642;55.766;37.828;2023-06-22T08:10:25;27.80;41.40
40636;DHT22;26642;55.766;37.828;2023-06-22T08:12:51;27.80;41.20
40636;DHT22;26642;55.766;37.828;2023-06-22T08:15:18;27.80;41.90
40636;DHT22;26642;55.766;37.828;2023-06-22T08:17:45;27.80;42.20
40636;DHT22;26642;55.766;37.828;2023-06-22T08:20:12;27.70;41.20
40636;DHT22;26642;55.766;37.828;2023-06-22T08:22:42;27.60;41.60
40636;DHT22;26642;55.766;37.828;2023-06-22T08:25:08;27.60;41.00
40636;DHT22;26642;55.766;37.828;2023-06-22T08:27:34;27.60;41.00
40636;DHT22;26642;55.766;37.828;2023-06-22T08:30:01;27.60;41.50
40636;DHT22;26642;55.766;37.828;2023-06-22T08:32:28;27.60;41.80
40636;DHT22;26642;55.766;37.828;2023-06-22T08:34:57;27.60;41.00
40636;DHT22;26642;55.766;37.828;2023-06-22T08:37:24;27.50;41.30
40636;DHT22;26642;55.766;37.828;2023-06-22T08:39:58;27.50;40.70
40636;DHT22;26642;55.766;37.828;2023-06-22T08:42:24;27.40;41.40
40636;DHT22;26642;55.766;37.828;2023-06-22T08:44:51;27.40;42.30
40636;DHT22;26642;55.766;37.828;2023-06-22T08:47:17;27.30;42.10
40636;DHT22;26642;55.766;37.828;2023-06-22T08:49:44;27.30;42.40
40636;DHT22;26642;55.766;37.828;2023-06-22T08:52:10;27.30;41.70
40636;DHT22;26642;55.766;37.828;2023-06-22T08:54:35;27.30;44.50
40636;DHT22;26642;55.766;37.828;2023-06-22T08:57:02;27.20;44.80
40636;DHT22;26642;55.766;37.828;2023-06-22T08:59:28;27.20;46.70
40636;DHT22;26642;55.766;37.828;2023-06-22T09:01:54;27.20;44.20
40636;DHT22;26642;55.766;37.828;2023-06-22T09:04:20;27.10;44.70
40636;DHT22;26642;55.766;37.828;2023-06-22T09:06:49;27.00;46.70
40636;DHT22;26642;55.766;37.828;2023-06-22T09:09:16;27.00;44.60
40636;DHT22;26642;55.766;37.828;2023-06-22T09:11:42;27.00;45.00
40636;DHT22;26642;55.766;37.828;2023-06-22T09:14:09;27.00;44.10
40636;DHT22;26642;55.766;37.828;2023-06-22T09:16:35;27.00;43.90
40636;DHT22;26642;55.766;37.828;2023-06-22T09:19:01;26.90;43.70
40636;DHT22;26642;55.766;37.828;2023-06-22T09:21:27;26.90;42.50
40636;DHT22;26642;55.766;37.828;2023-06-22T09:23:53;26.90;43.70
40636;DHT22;26642;55.766;37.828;2023-06-22T09:26:20;26.90;43.10
40636;DHT22;26642;55.766;37.828;2023-06-22T09:28:46;26.70;41.00
40636;DHT22;26642;55.766;37.828;2023-06-22T09:31:12;26.70;44.10
40636;DHT22;26642;55.766;37.828;2023-06-22T09:33:40;26.70;44.20
40636;DHT22;26642;55.766;37.828;2023-06-22T09:36:06;26.70;44.30
40636;DHT22;26642;55.766;37.828;2023-06-22T09:38:36;26.70;42.40
40636;DHT22;26642;55.766;37.828;2023-06-22T09:41:02;26.60;41.90
40636;DHT22;26642;55.766;37.828;2023-06-22T09:43:29;26.60;41.30
40636;DHT22;26642;55.766;37.828;2023-06-22T09:45:55;26.60;42.80
40636;DHT22;26642;55.766;37.828;2023-06-22T09:48:22;26.60;43.90
40636;DHT22;26642;55.766;37.828;2023-06-22T09:50:48;26.50;43.30
40636;DHT22;26642;55.766;37.828;2023-06-22T09:53:14;26.50;43.50
40636;DHT22;26642;55.766;37.828;2023-06-22T09:55:40;26.50;43.50
40636;DHT22;26642;55.766;37.828;2023-06-22T09:58:06;26.40;41.40
40636;DHT22;26642;55.766;37.828;2023-06-22T10:00:32;26.40;43.20
40636;DHT22;26642;55.766;37.828;2023-06-22T10:02:58;26.40;43.30
40636;DHT22;26642;55.766;37.828;2023-06-22T10:05:24;26.50;42.50
40636;DHT22;26642;55.766;37.828;2023-06-22T10:07:50;26.40;42.50
40636;DHT22;26642;55.766;37.828;2023-06-22T10:10:16;26.40;43.10
40636;DHT22;26642;55.766;37.828;2023-06-22T10:12:47;26.40;44.30
40636;DHT22;26642;55.766;37.828;2023-06-22T10:15:14;26.40;42.10
40636;DHT22;26642;55.766;37.828;2023-06-22T10:17:40;26.40;41.40
40636;DHT22;26642;55.766;37.828;2023-06-22T10:20:07;26.40;42.00
40636;DHT22;26642;55.766;37.828;2023-06-22T10:22:40;26.40;42.10
40636;DHT22;26642;55.766;37.828;2023-06-22T10:25:07;26.40;42.00
40636;DHT22;26642;55.766;37.828;2023-06-22T10:27:33;26.40;43.20
40636;DHT22;26642;55.766;37.828;2023-06-22T10:29:59;26.40;43.00
40636;DHT22;26642;55.766;37.828;2023-06-22T10:32:25;26.40;43.10
40636;DHT22;26642;55.766;37.828;2023-06-22T10:34:51;26.40;43.20
40636;DHT22;26642;55.766;37.828;2023-06-22T10:37:17;26.40;42.40
40636;DHT22;26642;55.766;37.828;2023-06-22T10:39:43;26.30;42.10
40636;DHT22;26642;55.766;37.828;2023-06-22T10:42:09;26.40;43.10
40636;DHT22;26642;55.766;37.828;2023-06-22T10:44:35;26.40;42.70
40636;DHT22;26642;55.766;37.828;2023-06-22T10:47:01;26.40;43.70
40636;DHT22;26642;55.766;37.828;2023-06-22T10:49:27;26.30;43.40
40636;DHT22;26642;55.766;37.828;2023-06-22T10:51:52;26.40;43.70
40636;DHT22;26642;55.766;37.828;2023-06-22T10:54:18;26.40;43.40
40636;DHT22;26642;55.766;37.828;2023-06-22T10:56:44;26.30;42.10
40636;DHT22;26642;55.766;37.828;2023-06-22T10:59:10;26.30;43.00
40636;DHT22;26642;55.766;37.828;2023-06-22T11:01:37;26.30;42.80
40636;DHT22;26642;55.766;37.828;2023-06-22T11:04:03;26.30;42.80
40636;DHT22;26642;55.766;37.828;2023-06-22T11:06:29;26.30;42.00
40636;DHT22;26642;55.766;37.828;2023-06-22T11:08:55;26.30;42.30
40636;DHT22;26642;55.766;37.828;2023-06-22T11:11:21;26.30;42.20
40636;DHT22;26642;55.766;37.828;2023-06-22T11:13:47;26.30;42.60
40636;DHT22;26642;55.766;37.828;2023-06-22T11:16:13;26.10;41.10
40636;DHT22;26642;55.766;37.828;2023-06-22T11:18:39;26.10;41.30
40636;DHT22;26642;55.766;37.828;2023-06-22T11:21:05;26.10;42.00
40636;DHT22;26642;55.766;37.828;2023-06-22T11:23:30;26.10;42.40
40636;DHT22;26642;55.766;37.828;2023-06-22T11:25:56;26.10;43.20
40636;DHT22;26642;55.766;37.828;2023-06-22T11:28:22;26.10;44.20
40636;DHT22;26642;55.766;37.828;2023-06-22T11:30:48;26.10;43.90
40636;DHT22;26642;55.766;37.828;2023-06-22T11:33:15;26.10;43.10
40636;DHT22;26642;55.766;37.828;2023-06-22T11:35:41;26.20;43.20
40636;DHT22;26642;55.766;37.828;2023-06-22T11:38:07;26.10;42.20
40636;DHT22;26642;55.766;37.828;2023-06-22T11:40:33;26.10;42.30
40636;DHT22;26642;55.766;37.828;2023-06-22T11:42:59;26.10;42.90
40636;DHT22;26642;55.766;37.828;2023-06-22T11:45:25;26.00;42.90
40636;DHT22;26642;55.766;37.828;2023-06-22T11:47:51;26.00;43.20
40636;DHT22;26642;55.766;37.828;2023-06-22T11:50:17;26.00;43.50
40636;DHT22;26642;55.766;37.828;2023-06-22T11:52:43;26.10;43.60
40636;DHT22;26642;55.766;37.828;2023-06-22T11:55:09;26.10;42.30
40636;DHT22;26642;55.766;37.828;2023-06-22T11:57:51;26.10;43.10
40636;DHT22;26642;55.766;37.828;2023-06-22T12:00:18;26.00;42.20
40636;DHT22;26642;55.766;37.828;2023-06-22T12:02:44;26.00;42.30
40636;DHT22;26642;55.766;37.828;2023-06-22T12:05:11;26.00;43.40
40636;DHT22;26642;55.766;37.828;2023-06-22T12:07:38;25.90;43.10
40636;DHT22;26642;55.766;37.828;2023-06-22T12:10:04;26.00;43.60
40636;DHT22;26642;55.766;37.828;2023-06-22T12:12:30;26.00;44.50
40636;DHT22;26642;55.766;37.828;2023-06-22T12:14:56;26.00;44.10
40636;DHT22;26642;55.766;37.828;2023-06-22T12:17:22;26.00;43.50
40636;DHT22;26642;55.766;37.828;2023-06-22T12:19:48;25.90;42.40
40636;DHT22;26642;55.766;37.828;2023-06-22T12:22:15;25.90;42.10
40636;DHT22;26642;55.766;37.828;2023-06-22T12:24:41;25.80;42.30
40636;DHT22;26642;55.766;37.828;2023-06-22T12:27:07;25.80;42.80
40636;DHT22;26642;55.766;37.828;2023-06-22T12:29:33;25.80;43.00
40636;DHT22;26642;55.766;37.828;2023-06-22T12:31:59;25.80;43.90
40636;DHT22;26642;55.766;37.828;2023-06-22T12:34:25;25.80;44.70
40636;DHT22;26642;55.766;37.828;2023-06-22T12:36:51;25.80;44.50
40636;DHT22;26642;55.766;37.828;2023-06-22T12:39:19;25.80;44.20
40636;DHT22;26642;55.766;37.828;2023-06-22T12:41:45;25.80;44.10
40636;DHT22;26642;55.766;37.828;2023-06-22T12:44:11;25.70;43.50
40636;DHT22;26642;55.766;37.828;2023-06-22T12:46:37;25.70;44.10
40636;DHT22;26642;55.766;37.828;2023-06-22T12:49:04;25.70;43.80
40636;DHT22;26642;55.766;37.828;2023-06-22T12:51:31;25.70;44.10
40636;DHT22;26642;55.766;37.828;2023-06-22T12:53:57;25.70;43.80
40636;DHT22;26642;55.766;37.828;2023-06-22T12:56:23;25.70;44.00
40636;DHT22;26642;55.766;37.828;2023-06-22T12:58:49;25.70;43.70
40636;DHT22;26642;55.766;37.828;2023-06-22T13:01:14;25.70;43.70
40636;DHT22;26642;55.766;37.828;2023-06-22T13:03:42;25.70;43.40
40636;DHT22;26642;55.766;37.828;2023-06-22T13:06:07;25.80;43.60
40636;DHT22;26642;55.766;37.828;2023-06-22T13:08:33;25.80;43.60
40636;DHT22;26642;55.766;37.828;2023-06-22T13:10:59;25.80;43.10
40636;DHT22;26642;55.766;37.828;2023-06-22T13:13:25;25.80;43.00
40636;DHT22;26642;55.766;37.828;2023-06-22T13:15:53;25.80;43.30
40636;DHT22;26642;55.766;37.828;2023-06-22T13:18:19;25.80;43.30
40636;DHT22;26642;55.766;37.828;2023-06-22T13:20:45;25.70;43.40
40636;DHT22;26642;55.766;37.828;2023-06-22T13:23:12;25.70;44.10
40636;DHT22;26642;55.766;37.828;2023-06-22T13:25:39;25.70;44.10
40636;DHT22;26642;55.766;37.828;2023-06-22T13:28:05;25.70;44.30
40636;DHT22;26642;55.766;37.828;2023-06-22T13:30:31;25.70;45.00
40636;DHT22;26642;55.766;37.828;2023-06-22T13:32:57;25.70;44.10
40636;DHT22;26642;55.766;37.828;2023-06-22T13:35:23;25.70;43.70
40636;DHT22;26642;55.766;37.828;2023-06-22T13:37:49;25.70;44.80
40636;DHT22;26642;55.766;37.828;2023-06-22T13:40:15;25.80;44.70
40636;DHT22;26642;55.766;37.828;2023-06-22T13:42:41;25.80;44.90
40636;DHT22;26642;55.766;37.828;2023-06-22T13:45:08;25.80;44.70
40636;DHT22;26642;55.766;37.828;2023-06-22T13:47:34;25.80;45.80
40636;DHT22;26642;55.766;37.828;2023-06-22T13:50:00;25.80;44.50
40636;DHT22;26642;55.766;37.828;2023-06-22T13:52:26;25.80;44.30
40636;DHT22;26642;55.766;37.828;2023-06-22T13:54:52;25.80;44.70
40636;DHT22;26642;55.766;37.828;2023-06-22T13:57:18;25.80;44.10
40636;DHT22;26642;55.766;37.828;2023-06-22T13:59:44;25.90;47.10
40636;DHT22;26642;55.766;37.828;2023-06-22T14:02:10;25.90;46.50
40636;DHT22;26642;55.766;37.828;2023-06-22T14:04:35;25.90;47.60
40636;DHT22;26642;55.766;37.828;2023-06-22T14:07:01;25.90;47.20
40636;DHT22;26642;55.766;37.828;2023-06-22T14:09:27;25.90;44.20
40636;DHT22;26642;55.766;37.828;2023-06-22T14:11:54;25.90;45.10
40636;DHT22;26642;55.766;37.828;2023-06-22T14:14:21;25.80;44.10
40636;DHT22;26642;55.766;37.828;2023-06-22T14:16:47;25.80;47.00
40636;DHT22;26642;55.766;37.828;2023-06-22T14:19:17;25.90;48.00
40636;DHT22;26642;55.766;37.828;2023-06-22T14:21:44;25.80;46.50
40636;DHT22;26642;55.766;37.828;2023-06-22T14:24:09;25.80;48.10
40636;DHT22;26642;55.766;37.828;2023-06-22T14:26:35;25.90;44.70
40636;DHT22;26642;55.766;37.828;2023-06-22T14:29:01;25.90;45.50
40636;DHT22;26642;55.766;37.828;2023-06-22T14:31:27;25.90;44.60
40636;DHT22;26642;55.766;37.828;2023-06-22T14:33:53;25.80;46.10
40636;DHT22;26642;55.766;37.828;2023-06-22T14:36:19;25.80;45.00
40636;DHT22;26642;55.766;37.828;2023-06-22T14:38:45;25.80;45.50
40636;DHT22;26642;55.766;37.828;2023-06-22T14:41:12;25.80;45.70
40636;DHT22;26642;55.766;37.828;2023-06-22T14:43:38;25.80;44.90
40636;DHT22;26642;55.766;37.828;2023-06-22T14:46:04;25.80;44.80
40636;DHT22;26642;55.766;37.828;2023-06-22T14:48:29;25.80;45.30
40636;DHT22;26642;55.766;37.828;2023-06-22T14:50:56;25.80;46.10
40636;DHT22;26642;55.766;37.828;2023-06-22T14:53:22;25.80;46.20
40636;DHT22;26642;55.766;37.828;2023-06-22T14:55:48;25.80;46.30
40636;DHT22;26642;55.766;37.828;2023-06-22T14:58:14;25.80;46.60
40636;DHT22;26642;55.766;37.828;2023-06-22T15:00:40;25.80;45.20
40636;DHT22;26642;55.766;37.828;2023-06-22T15:03:06;25.80;45.50
40636;DHT22;26642;55.766;37.828;2023-06-22T15:05:36;25.80;47.10
40636;DHT22;26642;55.766;37.828;2023-06-22T15:08:03;25.80;47.60
40636;DHT22;26642;55.766;37.828;2023-06-22T15:10:29;25.80;47.10
40636;DHT22;26642;55.766;37.828;2023-06-22T15:12:55;25.80;47.40
40636;DHT22;26642;55.766;37.828;2023-06-22T15:15:21;25.80;46.50
40636;DHT22;26642;55.766;37.828;2023-06-22T15:17:47;25.80;45.00
40636;DHT22;26642;55.766;37.828;2023-06-22T15:20:13;25.70;45.50
40636;DHT22;26642;55.766;37.828;2023-06-22T15:22:39;25.70;46.50
40636;DHT22;26642;55.766;37.828;2023-06-22T15:25:05;25.70;46.70
40636;DHT22;26642;55.766;37.828;2023-06-22T15:27:31;25.50;46.90
40636;DHT22;26642;55.766;37.828;2023-06-22T15:29:57;25.40;46.90